createdAt,value
2022-09-26T00:01:56.799Z,11.21
2022-09-26T00:04:46.238Z,11.18
2022-09-26T00:07:33.594Z,11.16
2022-09-26T00:10:21.987Z,11.13
2022-09-26T00:13:11.452Z,11.11
2022-09-26T00:15:59.869Z,11.09
2022-09-26T00:18:50.583Z,11.08
2022-09-26T00:21:41.346Z,11.06
2022-09-26T00:24:30.024Z,11.02
2022-09-26T00:27:22.625Z,11.01
2022-09-26T00:30:12.466Z,10.98
2022-09-26T00:33:00.296Z,10.94
2022-09-26T00:35:52.285Z,10.94
2022-09-26T00:38:42.241Z,10.92
2022-09-26T00:41:30.439Z,10.88
2022-09-26T00:44:43.917Z,10.85
2022-09-26T00:47:45.093Z,10.81
2022-09-26T00:50:38.966Z,10.79
2022-09-26T00:53:34.879Z,10.73
2022-09-26T00:56:31.919Z,10.70
2022-09-26T00:59:28.373Z,10.66
2022-09-26T01:02:18.099Z,10.64
2022-09-26T01:05:08.574Z,10.64
2022-09-26T01:07:58.350Z,10.62
2022-09-26T01:10:46.075Z,10.62
2022-09-26T01:13:37.740Z,10.61
2022-09-26T01:16:26.023Z,10.62
2022-09-26T01:19:30.289Z,10.63
2022-09-26T01:23:04.333Z,10.62
2022-09-26T01:26:35.837Z,10.64
2022-09-26T01:30:08.727Z,10.63
2022-09-26T01:33:36.731Z,10.66
2022-09-26T01:37:04.559Z,10.67
2022-09-26T01:40:06.474Z,10.69
2022-09-26T01:43:08.956Z,10.69
2022-09-26T01:46:09.133Z,10.70
2022-09-26T01:49:12.282Z,10.72
2022-09-26T01:52:07.140Z,10.71
2022-09-26T01:55:03.442Z,10.74
2022-09-26T01:57:56.556Z,10.75
2022-09-26T02:00:49.113Z,10.75
2022-09-26T02:03:44.728Z,10.76
2022-09-26T02:06:42.149Z,10.77
2022-09-26T02:09:36.818Z,10.77
2022-09-26T02:12:33.320Z,10.79
2022-09-26T02:15:25.862Z,10.81
2022-09-26T02:18:21.696Z,10.80
2022-09-26T02:21:18.943Z,10.80
2022-09-26T02:24:07.367Z,10.81
2022-09-26T02:26:57.276Z,10.80
2022-09-26T02:29:46.236Z,10.81
2022-09-26T02:32:35.372Z,10.81
2022-09-26T02:35:43.877Z,10.82
2022-09-26T02:38:39.077Z,10.81
2022-09-26T02:41:41.240Z,10.82
2022-09-26T02:44:56.874Z,10.82
2022-09-26T02:48:16.966Z,10.82
2022-09-26T02:51:27.751Z,10.82
2022-09-26T02:54:30.241Z,10.81
2022-09-26T02:57:34.355Z,10.80
2022-09-26T03:00:26.827Z,10.80
2022-09-26T03:03:24.270Z,10.78
2022-09-26T03:06:18.907Z,10.77
2022-09-26T03:09:09.597Z,10.76
2022-09-26T03:12:06.357Z,10.74
2022-09-26T03:15:04.254Z,10.72
2022-09-26T03:17:58.145Z,10.72
2022-09-26T03:20:50.102Z,10.68
2022-09-26T03:23:38.504Z,10.67
2022-09-26T03:26:30.766Z,10.66
2022-09-26T03:29:20.492Z,10.66
2022-09-26T03:32:10.665Z,10.65
2022-09-26T03:34:59.263Z,10.64
2022-09-26T03:37:48.001Z,10.64
2022-09-26T03:40:37.326Z,10.62
2022-09-26T03:43:24.984Z,10.59
2022-09-26T03:46:15.977Z,10.58
2022-09-26T03:49:04.146Z,10.56
2022-09-26T03:51:52.504Z,10.55
2022-09-26T03:54:40.818Z,10.54
2022-09-26T03:57:28.546Z,10.53
2022-09-26T04:00:17.244Z,10.51
2022-09-26T04:03:06.971Z,10.49
2022-09-26T04:05:55.626Z,10.48
2022-09-26T04:08:43.786Z,10.47
2022-09-26T04:11:31.558Z,10.44
2022-09-26T04:14:20.247Z,10.43
2022-09-26T04:17:08.730Z,10.41
2022-09-26T04:19:59.778Z,10.38
2022-09-26T04:22:47.699Z,10.37
2022-09-26T04:25:39.083Z,10.35
2022-09-26T04:28:26.940Z,10.30
2022-09-26T04:31:15.351Z,10.28
2022-09-26T04:34:03.232Z,10.25
2022-09-26T04:36:57.036Z,10.22
2022-09-26T04:39:44.987Z,10.21
2022-09-26T04:42:36.904Z,10.20
2022-09-26T04:45:24.906Z,10.16
2022-09-26T04:48:12.455Z,10.13
2022-09-26T04:51:00.006Z,10.10
2022-09-26T04:53:50.441Z,10.08
2022-09-26T04:56:38.321Z,10.07
2022-09-26T04:59:26.175Z,10.04
2022-09-26T05:02:14.018Z,10.02
2022-09-26T05:05:01.844Z,9.98
2022-09-26T05:07:49.248Z,9.98
2022-09-26T05:10:38.142Z,9.96
2022-09-26T05:13:27.712Z,9.93
2022-09-26T05:16:16.305Z,9.93
2022-09-26T05:19:04.517Z,9.89
2022-09-26T05:21:52.517Z,9.89
2022-09-26T05:24:57.938Z,9.85
2022-09-26T05:27:47.640Z,9.85
2022-09-26T05:30:36.547Z,9.84
2022-09-26T05:33:24.607Z,9.83
2022-09-26T05:36:12.885Z,9.80
2022-09-26T05:39:03.954Z,9.79
2022-09-26T05:41:53.347Z,9.76
2022-09-26T05:44:42.612Z,9.72
2022-09-26T05:47:32.262Z,9.70
2022-09-26T05:50:22.357Z,9.67
2022-09-26T05:53:09.890Z,9.65
2022-09-26T05:55:57.297Z,9.60
2022-09-26T05:58:44.926Z,9.59
2022-09-26T06:01:35.419Z,9.56
2022-09-26T06:04:22.901Z,9.54
2022-09-26T06:07:10.543Z,9.51
2022-09-26T06:09:58.139Z,9.46
2022-09-26T06:12:50.689Z,9.44
2022-09-26T06:15:39.889Z,9.39
2022-09-26T06:18:29.009Z,9.38
2022-09-26T06:21:19.853Z,9.38
2022-09-26T06:24:07.643Z,9.36
2022-09-26T06:26:55.013Z,9.35
2022-09-26T06:29:42.448Z,9.36
2022-09-26T06:32:29.833Z,9.39
2022-09-26T06:35:19.705Z,9.40
2022-09-26T06:38:07.711Z,9.42
2022-09-26T06:40:55.888Z,9.46
2022-09-26T06:43:44.932Z,9.52
2022-09-26T06:46:32.639Z,9.56
2022-09-26T06:49:20.277Z,9.60
2022-09-26T06:52:11.085Z,9.65
2022-09-26T06:54:58.548Z,9.66
2022-09-26T06:57:46.048Z,9.73
2022-09-26T07:00:35.804Z,9.76
2022-09-26T07:03:26.663Z,9.80
2022-09-26T07:06:14.488Z,9.86
2022-09-26T07:09:07.569Z,9.93
2022-09-26T07:12:15.780Z,10.02
2022-09-26T07:15:04.666Z,10.08
2022-09-26T07:17:52.407Z,10.09
2022-09-26T07:20:43.086Z,10.16
2022-09-26T07:23:30.731Z,10.18
2022-09-26T07:26:19.523Z,10.23
2022-09-26T07:29:07.198Z,10.29
2022-09-26T07:31:55.317Z,10.33
2022-09-26T07:34:43.974Z,10.38
2022-09-26T07:37:32.303Z,10.44
2022-09-26T07:40:21.729Z,10.52
2022-09-26T07:43:20.514Z,10.58
2022-09-26T07:46:26.151Z,10.65
2022-09-26T07:49:31.365Z,10.72
2022-09-26T07:52:22.562Z,10.76
2022-09-26T07:55:12.831Z,10.84
2022-09-26T07:58:00.738Z,10.89
2022-09-26T08:00:49.616Z,10.94
2022-09-26T08:03:37.042Z,11.01
2022-09-26T08:06:33.239Z,11.08
2022-09-26T08:09:20.994Z,11.17
2022-09-26T08:12:09.564Z,11.27
2022-09-26T08:14:57.956Z,11.33
2022-09-26T08:17:46.753Z,11.38
2022-09-26T08:20:35.720Z,11.42
2022-09-26T08:23:23.469Z,11.51
2022-09-26T08:26:11.638Z,11.56
2022-09-26T08:28:59.949Z,11.64
2022-09-26T08:31:48.682Z,11.72
2022-09-26T08:34:39.011Z,11.80
2022-09-26T08:37:27.897Z,11.90
2022-09-26T08:40:16.004Z,12.02
2022-09-26T08:43:19.588Z,12.16
2022-09-26T08:46:41.882Z,12.29
2022-09-26T08:49:51.264Z,12.50
2022-09-26T08:52:45.293Z,12.65
2022-09-26T08:55:40.985Z,12.84
2022-09-26T08:58:38.698Z,12.96
2022-09-26T09:01:31.226Z,13.08
2022-09-26T09:04:28.800Z,13.29
2022-09-26T09:07:24.379Z,13.53
2022-09-26T09:10:19.009Z,13.62
2022-09-26T09:13:24.015Z,13.69
2022-09-26T09:16:30.007Z,13.81
2022-09-26T09:19:35.421Z,13.98
2022-09-26T09:22:58.299Z,14.15
2022-09-26T09:29:33.214Z,14.60
2022-09-26T09:32:28.335Z,14.82
2022-09-26T09:35:38.438Z,14.99
2022-09-26T09:38:39.360Z,15.16
2022-09-26T09:41:35.642Z,15.26
2022-09-26T09:44:46.364Z,15.32
2022-09-26T09:47:40.217Z,15.50
2022-09-26T09:50:49.777Z,15.79
2022-09-26T09:54:43.701Z,16.19
2022-09-26T09:58:27.239Z,16.41
2022-09-26T10:01:26.195Z,16.41
2022-09-26T10:04:35.204Z,16.69
2022-09-26T10:07:32.529Z,16.88
2022-09-26T10:10:28.808Z,16.91
2022-09-26T10:13:19.130Z,16.96
2022-09-26T10:16:09.387Z,17.05
2022-09-26T10:19:03.374Z,17.11
2022-09-26T10:21:52.871Z,17.04
2022-09-26T10:24:41.830Z,17.25
2022-09-26T10:27:54.671Z,17.44
2022-09-26T10:30:50.681Z,17.54
2022-09-26T10:33:46.066Z,17.64
2022-09-26T10:36:36.749Z,17.69
2022-09-26T10:39:44.442Z,17.75
2022-09-26T10:42:32.597Z,17.76
2022-09-26T10:45:27.417Z,17.90
2022-09-26T10:48:22.120Z,18.08
2022-09-26T10:51:11.810Z,18.19
2022-09-26T10:54:21.340Z,18.21
2022-09-26T10:57:20.930Z,18.24
2022-09-26T11:00:10.360Z,18.46
2022-09-26T11:02:59.533Z,18.70
2022-09-26T11:05:59.340Z,19.04
2022-09-26T11:08:54.025Z,19.02
2022-09-26T11:11:43.941Z,18.98
2022-09-26T11:14:34.339Z,19.02
2022-09-26T11:17:22.073Z,19.02
2022-09-26T11:20:21.675Z,19.05
2022-09-26T11:23:32.768Z,19.20
2022-09-26T11:29:53.191Z,19.49
2022-09-26T11:36:10.898Z,19.42
2022-09-26T11:39:13.234Z,19.36
2022-09-26T11:42:16.309Z,19.53
2022-09-26T11:45:16.472Z,19.65
2022-09-26T11:48:35.531Z,19.67
2022-09-26T11:51:46.040Z,19.55
2022-09-26T11:54:58.463Z,19.27
2022-09-26T11:58:03.419Z,19.42
2022-09-26T12:01:05.234Z,19.43
2022-09-26T12:04:15.829Z,19.57
2022-09-26T12:07:16.341Z,19.46
2022-09-26T12:10:21.045Z,19.41
2022-09-26T12:13:34.198Z,19.42
2022-09-26T12:16:35.881Z,19.42
2022-09-26T12:19:34.269Z,19.46
2022-09-26T12:22:36.112Z,19.65
2022-09-26T12:25:43.687Z,19.43
2022-09-26T12:29:05.703Z,19.49
2022-09-26T12:32:25.117Z,19.64
2022-09-26T12:35:36.297Z,19.61
2022-09-26T12:38:57.990Z,19.50
2022-09-26T12:42:11.985Z,19.37
2022-09-26T12:45:29.380Z,19.34
2022-09-26T12:48:44.517Z,19.36
2022-09-26T12:51:44.667Z,19.39
2022-09-26T12:55:09.608Z,19.35
2022-09-26T12:58:22.017Z,19.16
2022-09-26T13:01:28.409Z,18.98
2022-09-26T13:04:55.770Z,18.85
2022-09-26T13:08:02.187Z,18.87
2022-09-26T13:11:12.084Z,18.78
2022-09-26T13:14:39.487Z,18.68
2022-09-26T13:17:34.936Z,18.49
2022-09-26T13:20:32.559Z,18.44
2022-09-26T13:23:27.506Z,18.40
2022-09-26T13:26:26.171Z,18.63
2022-09-26T13:29:20.435Z,18.78
2022-09-26T13:32:22.965Z,18.78
2022-09-26T13:35:20.819Z,18.78
2022-09-26T13:38:45.301Z,18.66
2022-09-26T13:41:51.357Z,18.53
2022-09-26T13:45:09.794Z,18.26
2022-09-26T13:48:09.254Z,18.25
2022-09-26T13:51:31.924Z,18.25
2022-09-26T13:54:45.170Z,18.24
2022-09-26T13:57:51.640Z,18.13
2022-09-26T14:00:53.234Z,18.07
2022-09-26T14:03:44.510Z,17.94
2022-09-26T14:06:33.187Z,17.80
2022-09-26T14:09:29.797Z,17.54
2022-09-26T14:12:34.622Z,17.47
2022-09-26T14:15:28.361Z,17.45
2022-09-26T14:18:34.409Z,17.40
2022-09-26T14:21:38.404Z,17.42
2022-09-26T14:24:45.234Z,17.41
2022-09-26T14:27:47.918Z,17.56
2022-09-26T14:30:39.939Z,17.79
2022-09-26T14:33:27.800Z,17.96
2022-09-26T14:36:27.259Z,17.94
2022-09-26T14:39:50.009Z,17.89
2022-09-26T14:42:49.920Z,17.87
2022-09-26T14:46:12.132Z,18.02
2022-09-26T14:49:11.438Z,18.07
2022-09-26T14:52:06.465Z,18.22
2022-09-26T14:55:02.865Z,18.35
2022-09-26T14:57:50.730Z,18.36
2022-09-26T15:00:44.565Z,18.31
2022-09-26T15:03:35.634Z,18.26
2022-09-26T15:06:26.697Z,18.26
2022-09-26T15:09:25.016Z,18.27
2022-09-26T15:12:21.345Z,18.23
2022-09-26T15:15:30.206Z,18.17
2022-09-26T15:18:34.646Z,18.12
2022-09-26T15:21:34.162Z,18.04
2022-09-26T15:24:33.611Z,17.98
2022-09-26T15:27:29.791Z,17.92
2022-09-26T15:30:32.014Z,18.02
2022-09-26T15:33:26.273Z,18.13
2022-09-26T15:36:18.403Z,18.18
2022-09-26T15:39:42.001Z,18.16
2022-09-26T15:42:51.227Z,18.11
2022-09-26T15:45:59.261Z,18.08
2022-09-26T15:48:47.697Z,18.04
2022-09-26T15:51:41.503Z,17.98
2022-09-26T15:57:49.382Z,17.80
2022-09-26T16:00:43.715Z,17.71
2022-09-26T16:03:57.248Z,17.58
2022-09-26T16:07:03.136Z,17.47
2022-09-26T16:09:52.835Z,17.37
2022-09-26T16:12:49.483Z,17.27
2022-09-26T16:16:07.945Z,17.14
2022-09-26T16:18:59.910Z,16.98
2022-09-26T16:21:47.737Z,16.86
2022-09-26T16:24:35.478Z,16.70
2022-09-26T16:27:28.006Z,16.55
2022-09-26T16:30:45.740Z,16.35
2022-09-26T16:33:35.716Z,16.22
2022-09-26T16:36:26.268Z,16.09
2022-09-26T16:39:23.964Z,15.96
2022-09-26T16:42:18.668Z,15.81
2022-09-26T16:45:15.712Z,15.66
2022-09-26T16:48:04.433Z,15.54
2022-09-26T16:51:15.622Z,15.37
2022-09-26T16:54:19.357Z,15.23
2022-09-26T16:57:11.073Z,15.07
2022-09-26T17:00:19.901Z,14.90
2022-09-26T17:03:25.697Z,14.77
2022-09-26T17:06:13.409Z,14.63
2022-09-26T17:09:14.322Z,14.51
2022-09-26T17:12:17.943Z,14.40
2022-09-26T17:15:10.496Z,14.30
2022-09-26T17:18:07.084Z,14.19
2022-09-26T17:20:59.160Z,14.08
2022-09-26T17:23:48.888Z,13.98
2022-09-26T17:26:36.636Z,13.88
2022-09-26T17:29:30.347Z,13.78
2022-09-26T17:32:31.228Z,13.72
2022-09-26T17:35:26.298Z,13.64
2022-09-26T17:38:18.830Z,13.56
2022-09-26T17:41:07.487Z,13.48
2022-09-26T17:44:00.937Z,13.41
2022-09-26T17:46:52.295Z,13.32
2022-09-26T17:49:41.867Z,13.25
2022-09-26T17:52:32.830Z,13.19
2022-09-26T17:55:22.944Z,13.12
2022-09-26T17:58:12.211Z,13.06
2022-09-26T18:01:02.512Z,13.02
2022-09-26T18:03:55.638Z,12.97
2022-09-26T18:06:44.106Z,12.93
2022-09-26T18:09:36.258Z,12.89
2022-09-26T18:12:25.625Z,12.84
2022-09-26T18:15:21.103Z,12.78
2022-09-26T18:18:15.550Z,12.75
2022-09-26T18:21:04.125Z,12.72
2022-09-26T18:23:58.033Z,12.67
2022-09-26T18:26:50.698Z,12.64
2022-09-26T18:29:44.550Z,12.60
2022-09-26T18:32:39.062Z,12.55
2022-09-26T18:35:34.617Z,12.53
2022-09-26T18:38:23.741Z,12.50
2022-09-26T18:44:25.583Z,12.45
2022-09-26T18:47:28.741Z,12.41
2022-09-26T18:50:24.537Z,12.37
2022-09-26T18:53:19.230Z,12.34
2022-09-26T18:56:31.875Z,12.29
2022-09-26T18:59:24.575Z,12.25
2022-09-26T19:02:25.535Z,12.23
2022-09-26T19:05:17.955Z,12.19
2022-09-26T19:08:06.249Z,12.15
2022-09-26T19:10:54.874Z,12.14
2022-09-26T19:13:44.711Z,12.09
2022-09-26T19:16:32.643Z,12.07
2022-09-26T19:19:23.158Z,12.03
2022-09-26T19:22:17.554Z,11.99
2022-09-26T19:25:08.023Z,11.95
2022-09-26T19:27:55.850Z,11.93
2022-09-26T19:30:43.416Z,11.91
2022-09-26T19:33:31.657Z,11.90
2022-09-26T19:36:22.206Z,11.86
2022-09-26T19:39:15.261Z,11.83
2022-09-26T19:42:05.837Z,11.83
2022-09-26T19:44:53.988Z,11.80
2022-09-26T19:47:48.255Z,11.77
2022-09-26T19:50:40.633Z,11.77
2022-09-26T19:53:32.536Z,11.74
2022-09-26T19:56:20.693Z,11.72
2022-09-26T19:59:12.817Z,11.71
2022-09-26T20:02:01.094Z,11.70
2022-09-26T20:04:50.022Z,11.69
2022-09-26T20:07:38.265Z,11.69
2022-09-26T20:10:27.351Z,11.68
2022-09-26T20:13:16.169Z,11.66
2022-09-26T20:16:04.675Z,11.66
2022-09-26T20:18:55.785Z,11.66
2022-09-26T20:21:44.722Z,11.63
2022-09-26T20:24:38.044Z,11.64
2022-09-26T20:27:30.254Z,11.63
2022-09-26T20:30:37.398Z,11.62
2022-09-26T20:33:27.900Z,11.63
2022-09-26T20:36:16.521Z,11.59
2022-09-26T20:39:09.008Z,11.60
2022-09-26T20:41:57.221Z,11.59
2022-09-26T20:44:50.151Z,11.59
2022-09-26T20:47:41.497Z,11.58
2022-09-26T20:50:34.210Z,11.59
2022-09-26T20:53:24.532Z,11.57
2022-09-26T20:56:16.935Z,11.58
2022-09-26T20:59:05.683Z,11.59
2022-09-26T21:01:58.233Z,11.60
2022-09-26T21:04:46.381Z,11.60
2022-09-26T21:07:34.876Z,11.60
2022-09-26T21:10:29.225Z,11.63
2022-09-26T21:13:16.786Z,11.64
2022-09-26T21:16:04.722Z,11.63
2022-09-26T21:18:54.483Z,11.62
2022-09-26T21:21:42.172Z,11.63
2022-09-26T21:24:35.137Z,11.65
2022-09-26T21:31:47.601Z,11.64
2022-09-26T21:34:38.804Z,11.62
2022-09-26T21:37:26.570Z,11.61
2022-09-26T21:40:14.512Z,11.60
2022-09-26T21:43:08.985Z,11.60
2022-09-26T21:45:56.751Z,11.60
2022-09-26T21:48:44.726Z,11.59
2022-09-26T21:51:33.799Z,11.56
2022-09-26T21:54:28.002Z,11.56
2022-09-26T21:57:20.876Z,11.54
2022-09-26T22:00:11.484Z,11.56
2022-09-26T22:03:00.908Z,11.56
2022-09-26T22:05:48.709Z,11.55
2022-09-26T22:08:39.359Z,11.57
2022-09-26T22:11:27.025Z,11.56
2022-09-26T22:14:14.953Z,11.57
2022-09-26T22:17:02.927Z,11.57
2022-09-26T22:19:53.335Z,11.59
2022-09-26T22:22:40.863Z,11.60
2022-09-26T22:25:30.199Z,11.62
2022-09-26T22:28:18.156Z,11.64
2022-09-26T22:31:07.614Z,11.64
2022-09-26T22:33:59.360Z,11.65
2022-09-26T22:36:47.184Z,11.65
2022-09-26T22:39:35.040Z,11.65
2022-09-26T22:42:23.958Z,11.66
2022-09-26T22:45:12.604Z,11.65
2022-09-26T22:48:00.319Z,11.63
2022-09-26T22:50:48.058Z,11.64
2022-09-26T22:53:39.785Z,11.66
2022-09-26T22:56:27.572Z,11.73
2022-09-26T22:59:17.079Z,11.78
2022-09-26T23:02:05.125Z,11.77
2022-09-26T23:04:53.923Z,11.79
2022-09-26T23:07:42.039Z,11.77
2022-09-26T23:10:33.761Z,11.77
2022-09-26T23:13:23.264Z,11.73
2022-09-26T23:16:16.092Z,11.69
2022-09-26T23:19:04.476Z,11.66
2022-09-26T23:21:52.629Z,11.64
2022-09-26T23:24:40.271Z,11.57
2022-09-26T23:27:29.408Z,11.54
2022-09-26T23:30:18.579Z,11.51
2022-09-26T23:33:08.081Z,11.50
2022-09-26T23:35:59.168Z,11.50
2022-09-26T23:38:47.916Z,11.49
2022-09-26T23:41:35.432Z,11.46
2022-09-26T23:44:23.167Z,11.44
2022-09-26T23:47:11.091Z,11.44
2022-09-26T23:50:00.330Z,11.43
2022-09-26T23:52:48.774Z,11.42
2022-09-26T23:55:36.647Z,11.41
2022-09-26T23:58:24.613Z,11.38
